Time;durP1;ratioP1;P1;durP2;ratioP2;P2;SDS_P1;SDS_P2;PMS_P1;PMS_P2;Temp;Humidity;BMP_temperature;BMP_pressure;BME280_temperature;BME280_humidity;BME280_pressure;Samples;Min_cycle;Max_cycle;Signal;HPM_P1;HPM_P2
2022/10/11 00:00:30;;;;;;;11.35;4.13;;;15.70;85.00;;;;;;5034131;28;20037;-77
2022/10/11 00:02:56;;;;;;;10.45;4.00;;;15.60;85.20;;;;;;5034037;28;20171;-77
2022/10/11 00:05:22;;;;;;;9.88;4.13;;;15.60;85.40;;;;;;5033914;28;20136;-77
2022/10/11 00:07:48;;;;;;;7.68;3.70;;;15.50;85.50;;;;;;5033528;28;20021;-77
2022/10/11 00:10:14;;;;;;;10.93;4.53;;;15.40;85.70;;;;;;5034064;28;20021;-77
2022/10/11 00:12:40;;;;;;;12.10;4.30;;;15.50;86.80;;;;;;5034082;28;20540;-77
2022/10/11 00:15:07;;;;;;;12.52;4.63;;;15.50;86.00;;;;;;5033858;28;20033;-77
2022/10/11 00:17:33;;;;;;;12.30;4.25;;;15.50;86.00;;;;;;5033833;28;20029;-77
2022/10/11 00:19:58;;;;;;;14.65;4.40;;;15.50;86.00;;;;;;5033974;28;20029;-77
2022/10/11 00:22:24;;;;;;;9.07;3.60;;;15.50;85.90;;;;;;5033128;28;20050;-78
2022/10/11 00:24:51;;;;;;;12.40;4.15;;;15.40;85.90;;;;;;5033085;28;20025;-77
2022/10/11 00:27:17;;;;;;;9.13;3.58;;;15.40;86.10;;;;;;5032723;28;20021;-77
2022/10/11 00:29:43;;;;;;;9.18;4.00;;;15.40;86.30;;;;;;5032562;28;20045;-77
2022/10/11 00:32:08;;;;;;;8.95;3.58;;;15.50;86.20;;;;;;5032590;28;20156;-78
2022/10/11 00:34:34;;;;;;;7.40;3.78;;;15.40;86.80;;;;;;5032680;28;20070;-77
2022/10/11 00:37:00;;;;;;;8.07;3.40;;;15.40;86.00;;;;;;5032682;28;20053;-77
2022/10/11 00:39:25;;;;;;;11.20;3.92;;;15.40;86.20;;;;;;5032341;28;20390;-77
2022/10/11 00:41:51;;;;;;;10.23;3.60;;;15.40;86.20;;;;;;5032563;28;20022;-77
2022/10/11 00:44:20;;;;;;;12.00;4.32;;;15.40;86.10;;;;;;5032477;28;20119;-77
2022/10/11 00:47:00;;;;;;;10.18;3.33;;;15.40;86.10;;;;;;5048953;28;20021;-78
2022/10/11 00:49:40;;;;;;;10.95;3.35;;;15.40;86.10;;;;;;5032679;28;20071;-78
2022/10/11 00:52:20;;;;;;;12.15;3.60;;;15.30;86.30;;;;;;5032494;28;20417;-78
2022/10/11 00:54:47;;;;;;;10.30;3.85;;;15.30;86.30;;;;;;5032417;28;20025;-78
2022/10/11 00:57:17;;;;;;;8.27;3.90;;;15.20;86.10;;;;;;5032210;28;20028;-78
2022/10/11 00:59:47;;;;;;;9.45;4.35;;;15.30;86.30;;;;;;5032299;28;20029;-78
2022/10/11 01:02:14;;;;;;;8.93;3.70;;;15.30;86.40;;;;;;5032275;28;20103;-78
2022/10/11 01:04:40;;;;;;;14.90;4.35;;;15.30;86.30;;;;;;5032288;28;20040;-78
2022/10/11 01:07:08;;;;;;;7.53;3.63;;;15.30;86.30;;;;;;5032112;28;20044;-78
2022/10/11 01:09:34;;;;;;;9.90;3.78;;;15.20;86.30;;;;;;5031977;28;20075;-78
2022/10/11 01:12:03;;;;;;;10.40;4.05;;;15.20;86.30;;;;;;5032262;28;20025;-78
2022/10/11 01:15:08;;;;;;;10.32;4.15;;;15.20;86.30;;;;;;5032205;28;20030;-79
2022/10/11 01:17:41;;;;;;;8.48;3.47;;;15.20;86.30;;;;;;5031647;28;20425;-78
2022/10/11 01:20:19;;;;;;;13.13;4.55;;;15.20;86.40;;;;;;5031657;28;20056;-78
2022/10/11 01:22:50;;;;;;;7.57;3.20;;;15.20;86.40;;;;;;4997714;28;1091057;-78
2022/10/11 01:25:26;;;;;;;8.52;3.65;;;15.10;86.70;;;;;;5032654;28;20037;-78
2022/10/11 01:28:14;;;;;;;9.75;3.95;;;15.10;86.60;;;;;;5032403;28;20482;-78
2022/10/11 01:30:41;;;;;;;12.00;4.47;;;15.10;86.70;;;;;;5032942;28;20029;-78
2022/10/11 01:33:24;;;;;;;11.38;4.32;;;15.10;86.80;;;;;;5032763;28;20064;-78
2022/10/11 01:36:17;;;;;;;10.75;3.92;;;15.00;86.70;;;;;;5032577;28;20389;-78
2022/10/11 01:38:52;;;;;;;14.55;3.92;;;14.90;86.70;;;;;;5032132;28;20041;-78
2022/10/11 01:41:26;;;;;;;;;;;14.80;86.90;;;;;;5032975;28;20029;-78
2022/10/11 01:43:56;;;;;;;8.77;3.58;;;14.70;87.10;;;;;;5032606;28;20358;-78
2022/10/11 01:46:23;;;;;;;10.27;3.60;;;14.70;87.30;;;;;;5032319;28;20371;-78
2022/10/11 01:48:58;;;;;;;13.07;3.75;;;14.80;87.20;;;;;;5031992;28;20120;-78
2022/10/11 01:51:29;;;;;;;8.10;3.50;;;14.70;87.10;;;;;;5032179;28;20442;-78
2022/10/11 01:54:25;;;;;;;13.38;3.95;;;14.70;87.10;;;;;;5032132;28;20479;-78
2022/10/11 01:57:17;;;;;;;7.68;3.10;;;14.70;86.90;;;;;;5031992;28;20022;-78
2022/10/11 02:00:18;;;;;;;9.23;3.05;;;14.70;86.70;;;;;;5031922;28;20048;-78
2022/10/11 02:03:17;;;;;;;8.75;3.70;;;14.60;86.60;;;;;;5032266;28;20428;-78
2022/10/11 02:06:02;;;;;;;6.95;3.10;;;14.60;86.70;;;;;;5031969;28;20184;-78
2022/10/11 02:08:42;;;;;;;6.80;3.22;;;14.60;86.80;;;;;;5032254;28;20039;-78
2022/10/11 02:11:32;;;;;;;7.60;2.53;;;14.60;86.70;;;;;;5032205;28;20026;-77
2022/10/11 02:14:01;;;;;;;12.95;3.58;;;14.60;86.70;;;;;;5031921;28;20613;-77
2022/10/11 02:16:47;;;;;;;12.23;3.53;;;14.50;86.60;;;;;;5032050;28;20113;-78
2022/10/11 02:19:17;;;;;;;10.15;3.22;;;14.50;86.40;;;;;;5031698;28;20558;-78
2022/10/11 02:21:45;;;;;;;6.32;2.70;;;14.50;86.10;;;;;;5031842;28;20412;-78
2022/10/11 02:24:22;;;;;;;6.13;3.20;;;14.40;85.90;;;;;;5031683;28;20102;-79
2022/10/11 02:26:53;;;;;;;11.25;4.60;;;14.30;86.80;;;;;;5031760;28;20033;-79
2022/10/11 02:29:21;;;;;;;12.40;4.03;;;14.30;86.20;;;;;;5031006;28;20037;-78
2022/10/11 02:31:49;;;;;;;11.82;4.13;;;14.20;86.20;;;;;;5031841;28;20030;-78
2022/10/11 02:34:26;;;;;;;14.73;4.13;;;14.10;86.30;;;;;;5031380;28;20087;-78
2022/10/11 02:37:07;;;;;;;12.95;4.03;;;14.10;86.70;;;;;;5031336;28;20033;-78
2022/10/11 02:39:41;;;;;;;10.88;3.97;;;14.10;87.00;;;;;;5031402;28;20029;-78
2022/10/11 02:42:13;;;;;;;12.95;4.30;;;14.00;87.10;;;;;;5031716;28;20030;-78
2022/10/11 02:44:46;;;;;;;10.65;3.67;;;14.10;87.20;;;;;;5031251;28;20179;-78
2022/10/11 02:47:12;;;;;;;8.73;3.83;;;14.10;87.00;;;;;;5031608;28;20022;-78
2022/10/11 02:49:38;;;;;;;8.15;3.90;;;14.00;86.50;;;;;;5031134;28;20037;-78
2022/10/11 02:52:05;;;;;;;7.60;3.63;;;14.00;86.60;;;;;;5031657;28;20092;-78
2022/10/11 02:54:31;;;;;;;11.00;3.78;;;14.00;86.60;;;;;;5031712;28;20022;-78
2022/10/11 02:56:56;;;;;;;9.40;4.25;;;14.00;86.70;;;;;;5031523;28;20492;-78
2022/10/11 02:59:22;;;;;;;8.48;3.70;;;14.00;86.70;;;;;;5031596;28;20039;-78
2022/10/11 03:01:47;;;;;;;13.70;4.70;;;14.00;86.70;;;;;;5031038;28;20025;-78
2022/10/11 03:04:13;;;;;;;11.90;4.40;;;13.90;87.00;;;;;;5031122;28;20017;-77
2022/10/11 03:06:38;;;;;;;9.75;4.22;;;13.90;87.10;;;;;;5031524;28;20382;-77
2022/10/11 03:09:04;;;;;;;9.43;4.10;;;13.90;87.20;;;;;;5031495;28;20081;-77
2022/10/11 03:11:30;;;;;;;13.57;5.53;;;13.90;87.20;;;;;;5031282;28;20075;-77
2022/10/11 03:13:55;;;;;;;13.30;4.50;;;13.80;87.90;;;;;;5031370;28;20379;-77
2022/10/11 03:16:21;;;;;;;12.52;5.20;;;13.80;87.30;;;;;;5031302;28;20021;-77
2022/10/11 03:18:46;;;;;;;9.23;4.78;;;13.70;87.60;;;;;;5031050;28;20032;-77
2022/10/11 03:21:12;;;;;;;10.20;4.80;;;13.70;87.70;;;;;;5031144;28;20052;-77
2022/10/11 03:23:38;;;;;;;10.40;5.00;;;13.70;87.70;;;;;;5048201;28;20052;-77
2022/10/11 03:26:04;;;;;;;9.95;4.85;;;13.70;87.60;;;;;;5031368;28;20017;-77
2022/10/11 03:28:30;;;;;;;15.15;5.78;;;13.70;87.60;;;;;;5031048;28;20030;-77
2022/10/11 03:30:56;;;;;;;12.73;5.15;;;13.60;87.70;;;;;;5031323;28;20140;-78
2022/10/11 03:33:21;;;;;;;11.52;5.40;;;13.50;88.10;;;;;;5030866;28;20072;-77
2022/10/11 03:35:47;;;;;;;8.93;5.25;;;13.50;88.30;;;;;;5031273;28;20018;-78
2022/10/11 03:38:16;;;;;;;12.77;5.25;;;13.40;88.40;;;;;;5030889;28;20116;-77
2022/10/11 03:40:42;;;;;;;10.20;4.97;;;13.50;88.70;;;;;;5032014;28;20029;-77
2022/10/11 03:43:09;;;;;;;11.15;4.88;;;13.40;88.70;;;;;;5034577;28;20381;-77
2022/10/11 03:45:35;;;;;;;10.65;4.63;;;13.40;88.70;;;;;;5034290;28;20026;-77
2022/10/11 03:48:00;;;;;;;14.55;6.28;;;13.40;88.70;;;;;;5034389;28;20029;-77
2022/10/11 03:50:26;;;;;;;9.32;4.90;;;13.40;88.50;;;;;;5034632;28;20133;-77
2022/10/11 03:52:52;;;;;;;13.93;6.03;;;13.40;89.30;;;;;;5034095;28;20060;-77
2022/10/11 03:55:17;;;;;;;12.68;5.65;;;13.30;88.80;;;;;;5034316;28;20413;-77
2022/10/11 03:57:43;;;;;;;8.45;4.65;;;13.30;88.90;;;;;;5034067;28;20073;-77
2022/10/11 04:00:09;;;;;;;10.15;4.82;;;13.30;88.90;;;;;;5033520;28;20037;-77
2022/10/11 04:02:34;;;;;;;10.10;4.60;;;13.30;88.80;;;;;;5034168;28;20395;-77
2022/10/11 04:05:01;;;;;;;11.50;4.75;;;13.30;88.50;;;;;;5034199;28;20065;-77
2022/10/11 04:07:27;;;;;;;8.93;4.30;;;13.40;88.30;;;;;;5033901;28;20490;-77
2022/10/11 04:09:53;;;;;;;9.32;5.15;;;13.40;88.50;;;;;;5033737;28;20025;-77
2022/10/11 04:12:19;;;;;;;14.65;5.57;;;13.40;88.30;;;;;;5033937;28;20037;-77
2022/10/11 04:14:44;;;;;;;10.20;4.57;;;13.40;88.40;;;;;;5033954;28;20029;-77
2022/10/11 04:17:10;;;;;;;11.38;4.85;;;13.40;88.20;;;;;;5033844;28;20049;-77
2022/10/11 04:19:36;;;;;;;9.82;5.57;;;13.40;88.20;;;;;;5033961;28;20030;-77
2022/10/11 04:22:05;;;;;;;9.90;5.47;;;13.50;88.20;;;;;;5033987;28;20045;-77
2022/10/11 04:24:31;;;;;;;13.05;4.85;;;13.50;88.10;;;;;;5033632;28;20025;-77
2022/10/11 04:26:57;;;;;;;9.20;5.38;;;13.50;87.90;;;;;;5033717;28;20032;-77
2022/10/11 04:29:23;;;;;;;10.70;5.25;;;13.50;88.00;;;;;;5033818;28;20448;-77
2022/10/11 04:31:49;;;;;;;9.27;5.47;;;13.50;87.90;;;;;;5033941;28;20470;-77
2022/10/11 04:34:15;;;;;;;9.93;4.78;;;13.50;87.70;;;;;;5034916;28;20397;-78
2022/10/11 04:36:41;;;;;;;7.10;4.40;;;13.60;87.70;;;;;;5033618;28;20029;-77
2022/10/11 04:39:07;;;;;;;10.32;4.82;;;13.60;87.80;;;;;;5033615;28;20029;-77
2022/10/11 04:41:33;;;;;;;10.48;5.20;;;13.70;87.80;;;;;;5033300;28;20037;-77
2022/10/11 04:43:59;;;;;;;14.40;5.38;;;13.70;87.60;;;;;;5033302;28;20390;-76
2022/10/11 04:46:25;;;;;;;10.50;5.32;;;13.60;87.20;;;;;;5033310;28;20026;-76
2022/10/11 04:48:51;;;;;;;10.32;5.13;;;13.80;87.00;;;;;;5033471;28;20033;-77
2022/10/11 04:51:17;;;;;;;13.30;4.90;;;13.70;86.90;;;;;;5033242;28;20026;-77
2022/10/11 04:53:43;;;;;;;7.03;3.63;;;13.70;86.90;;;;;;5032387;28;20036;-77
2022/10/11 04:56:10;;;;;;;10.13;5.07;;;13.80;86.80;;;;;;5033118;28;20025;-78
2022/10/11 04:58:39;;;;;;;13.65;5.22;;;13.70;86.70;;;;;;5033291;28;20385;-78
2022/10/11 05:01:06;;;;;;;10.00;5.63;;;13.70;86.80;;;;;;5033245;28;20056;-77
2022/10/11 05:03:32;;;;;;;20.38;6.50;;;13.80;86.80;;;;;;5033088;28;20080;-77
2022/10/11 05:05:57;;;;;;;12.13;6.22;;;13.70;86.70;;;;;;5032893;28;20021;-77
2022/10/11 05:08:23;;;;;;;12.10;4.95;;;13.60;87.00;;;;;;5032915;28;20121;-77
2022/10/11 05:11:02;;;;;;;11.07;4.70;;;13.60;87.30;;;;;;5032660;28;20034;-77
2022/10/11 05:13:28;;;;;;;13.85;5.82;;;13.60;87.50;;;;;;5032809;28;20585;-77
2022/10/11 05:15:54;;;;;;;10.02;5.78;;;13.60;87.60;;;;;;5032776;28;20022;-77
2022/10/11 05:18:20;;;;;;;11.60;4.95;;;13.60;88.30;;;;;;5032382;28;20018;-78
2022/10/11 05:20:46;;;;;;;13.27;5.38;;;13.60;87.60;;;;;;5033484;28;20471;-77
2022/10/11 05:23:12;;;;;;;7.32;4.65;;;13.60;87.70;;;;;;5032230;28;20541;-77
2022/10/11 05:25:37;;;;;;;13.05;5.45;;;13.70;87.70;;;;;;5032121;28;20022;-77
2022/10/11 05:28:03;;;;;;;6.97;3.85;;;13.70;87.70;;;;;;5031516;28;20032;-77
2022/10/11 05:30:29;;;;;;;10.75;4.95;;;13.70;87.60;;;;;;5031669;28;20036;-77
2022/10/11 05:32:54;;;;;;;10.88;4.50;;;13.80;87.50;;;;;;5031877;28;20022;-77
2022/10/11 05:35:20;;;;;;;7.07;4.05;;;13.80;87.30;;;;;;5031663;28;20437;-78
2022/10/11 05:37:45;;;;;;;8.07;4.55;;;13.90;87.30;;;;;;5032214;28;20462;-77
2022/10/11 05:40:11;;;;;;;15.98;5.40;;;13.90;87.20;;;;;;5032027;28;20068;-77
2022/10/11 05:42:37;;;;;;;11.90;5.05;;;13.90;87.00;;;;;;5032093;28;20387;-77
2022/10/11 05:45:06;;;;;;;15.15;6.35;;;13.80;86.80;;;;;;5032163;28;20032;-78
2022/10/11 05:47:32;;;;;;;14.65;6.85;;;13.80;86.80;;;;;;5032085;28;20079;-77
2022/10/11 05:49:58;;;;;;;12.65;6.57;;;13.80;86.70;;;;;;5032086;28;20022;-77
2022/10/11 05:52:24;;;;;;;9.38;5.78;;;13.70;87.00;;;;;;5031829;28;20061;-77
2022/10/11 05:54:50;;;;;;;8.52;6.00;;;13.80;87.40;;;;;;5032149;28;20034;-77
2022/10/11 05:57:15;;;;;;;19.17;5.80;;;13.90;87.40;;;;;;5032050;28;20026;-77
2022/10/11 05:59:41;;;;;;;11.82;5.72;;;13.90;87.10;;;;;;5032002;28;20036;-77
2022/10/11 06:02:14;;;;;;;12.50;6.00;;;13.90;87.00;;;;;;5031848;28;20025;-77
2022/10/11 06:04:40;;;;;;;13.23;5.43;;;14.00;86.90;;;;;;5031655;28;20029;-77
2022/10/11 06:07:07;;;;;;;10.98;5.65;;;14.00;86.60;;;;;;5031442;28;20037;-77
2022/10/11 06:09:33;;;;;;;10.25;4.55;;;14.10;86.50;;;;;;5031564;28;20053;-77
2022/10/11 06:11:59;;;;;;;8.07;4.60;;;14.10;86.40;;;;;;5030689;28;20079;-77
2022/10/11 06:14:25;;;;;;;7.82;5.00;;;14.10;86.40;;;;;;5031436;28;20029;-78
2022/10/11 06:16:51;;;;;;;7.22;4.53;;;14.20;86.30;;;;;;5031503;28;20021;-79
2022/10/11 06:19:16;;;;;;;11.10;4.65;;;14.20;86.10;;;;;;5031070;28;20493;-78
2022/10/11 06:21:44;;;;;;;10.98;5.47;;;14.30;85.90;;;;;;5030960;28;20052;-78
2022/10/11 06:24:11;;;;;;;8.82;5.35;;;14.30;85.80;;;;;;5031347;28;20478;-76
2022/10/11 06:26:36;;;;;;;10.30;4.90;;;14.30;86.00;;;;;;5031552;28;20033;-77
2022/10/11 06:29:02;;;;;;;11.82;5.65;;;14.30;86.00;;;;;;5031510;28;20022;-76
2022/10/11 06:31:28;;;;;;;12.40;5.30;;;14.30;85.90;;;;;;5031363;28;20135;-77
2022/10/11 06:33:54;;;;;;;10.00;4.43;;;14.30;85.80;;;;;;5032619;28;20049;-79
2022/10/11 06:36:20;;;;;;;11.73;5.00;;;14.40;85.80;;;;;;5031395;28;20069;-79
2022/10/11 06:38:45;;;;;;;10.20;5.45;;;14.40;85.60;;;;;;5031355;28;20456;-78
2022/10/11 06:41:19;;;;;;;11.77;5.50;;;14.50;85.60;;;;;;5031249;28;20044;-79
2022/10/11 06:43:45;;;;;;;16.95;7.40;;;14.50;85.50;;;;;;5031409;28;20021;-78
2022/10/11 06:46:11;;;;;;;20.33;8.77;;;14.50;85.70;;;;;;5031414;28;20363;-79
2022/10/11 06:48:42;;;;;;;20.80;8.38;;;14.50;86.30;;;;;;5031023;28;20390;-78
2022/10/11 06:51:09;;;;;;;20.52;9.00;;;14.30;87.30;;;;;;5031071;28;20021;-77
2022/10/11 06:53:34;;;;;;;15.45;8.38;;;14.20;88.30;;;;;;5031117;28;20029;-77
2022/10/11 06:56:05;;;;;;;18.88;9.23;;;14.10;88.70;;;;;;5032447;28;20037;-77
2022/10/11 06:58:31;;;;;;;20.38;10.80;;;14.10;89.10;;;;;;5030724;28;20072;-77
2022/10/11 07:01:01;;;;;;;15.45;7.75;;;14.10;89.20;;;;;;5030504;28;20041;-79
2022/10/11 07:03:28;;;;;;;17.67;7.88;;;14.10;89.20;;;;;;5030820;28;20113;-77
2022/10/11 07:05:53;;;;;;;21.17;9.25;;;14.20;89.00;;;;;;5014174;28;20129;-79
2022/10/11 07:08:19;;;;;;;21.15;8.85;;;14.20;89.00;;;;;;5031111;28;20025;-78
2022/10/11 07:10:45;;;;;;;26.63;9.75;;;14.20;88.90;;;;;;5031308;28;20474;-77
2022/10/11 07:13:10;;;;;;;26.65;9.90;;;14.30;88.90;;;;;;5031170;28;20111;-82
2022/10/11 07:15:37;;;;;;;33.72;12.38;;;14.30;88.80;;;;;;5031831;28;20167;-81
2022/10/11 07:18:02;;;;;;;23.20;10.75;;;14.40;88.90;;;;;;5034177;28;20021;-86
2022/10/11 07:20:28;;;;;;;24.05;13.18;;;14.40;89.20;;;;;;5035094;28;20408;-82
2022/10/11 07:22:54;;;;;;;27.00;13.13;;;14.40;88.80;;;;;;5034591;28;20060;-81
2022/10/11 07:25:19;;;;;;;40.60;12.57;;;14.40;89.00;;;;;;5034495;28;20030;-82
2022/10/11 07:27:45;;;;;;;34.70;12.57;;;14.50;91.20;;;;;;5034623;28;20029;-77
2022/10/11 07:30:11;;;;;;;46.53;12.70;;;14.70;91.70;;;;;;5034183;28;20120;-79
2022/10/11 07:32:36;;;;;;;24.60;11.90;;;14.90;90.50;;;;;;5034008;28;20036;-82
2022/10/11 07:35:02;;;;;;;31.17;11.45;;;15.10;88.90;;;;;;5033998;28;20021;-81
2022/10/11 07:37:28;;;;;;;33.92;12.65;;;15.30;87.70;;;;;;5034488;28;20398;-83
2022/10/11 07:39:53;;;;;;;21.92;10.95;;;15.50;86.30;;;;;;5018100;28;20037;-85
2022/10/11 07:42:20;;;;;;;18.48;10.50;;;15.70;85.30;;;;;;5017799;28;20033;-81
2022/10/11 07:44:49;;;;;;;20.48;10.77;;;15.80;85.20;;;;;;5017823;28;20041;-83
2022/10/11 07:47:17;;;;;;;20.63;9.98;;;16.00;83.70;;;;;;5033603;28;20033;-83
2022/10/11 07:49:43;;;;;;;20.58;10.27;;;16.00;83.00;;;;;;5033987;28;20060;-83
2022/10/11 07:52:10;;;;;;;24.52;11.00;;;16.10;82.60;;;;;;5034061;28;20030;-83
2022/10/11 07:54:35;;;;;;;28.05;10.30;;;16.10;82.40;;;;;;5034263;28;20024;-82
2022/10/11 07:57:01;;;;;;;15.02;9.10;;;16.20;82.00;;;;;;5033719;28;20030;-83
2022/10/11 07:59:28;;;;;;;18.65;8.68;;;16.30;81.70;;;;;;5017584;28;20470;-83
2022/10/11 08:01:54;;;;;;;15.85;9.13;;;16.20;81.60;;;;;;5033437;28;20047;-82
2022/10/11 08:04:22;;;;;;;15.02;8.85;;;16.30;81.70;;;;;;5035074;28;20022;-82
2022/10/11 08:06:49;;;;;;;19.30;9.95;;;16.30;81.70;;;;;;5033809;28;20087;-82
2022/10/11 08:09:15;;;;;;;23.83;9.43;;;16.40;81.10;;;;;;5039707;28;20363;-82
2022/10/11 08:11:41;;;;;;;12.45;8.02;;;16.50;80.80;;;;;;5038639;28;20022;-82
2022/10/11 08:14:10;;;;;;;15.40;9.20;;;16.50;80.60;;;;;;5033982;28;20072;-83
2022/10/11 08:16:41;;;;;;;23.75;11.02;;;16.50;80.30;;;;;;5017901;28;20025;-83
2022/10/11 08:19:08;;;;;;;20.67;10.57;;;16.50;80.50;;;;;;5034049;28;20116;-82
2022/10/11 08:21:34;;;;;;;22.13;11.10;;;16.50;80.50;;;;;;5033960;28;20072;-82
2022/10/11 08:24:02;;;;;;;18.42;10.60;;;16.50;80.70;;;;;;5033772;28;20430;-83
2022/10/11 08:26:31;;;;;;;26.77;12.38;;;16.50;80.60;;;;;;5038949;28;20036;-82
2022/10/11 08:29:00;;;;;;;24.23;11.93;;;16.40;80.80;;;;;;5023748;28;20048;-83
2022/10/11 08:31:29;;;;;;;24.52;14.90;;;16.50;80.80;;;;;;5033217;28;20038;-84
2022/10/11 08:33:55;;;;;;;33.90;18.45;;;16.50;80.50;;;;;;5019046;28;20036;-77
2022/10/11 08:36:20;;;;;;;34.03;19.73;;;16.40;80.20;;;;;;5034263;28;20022;-76
2022/10/11 08:38:46;;;;;;;35.70;19.20;;;16.30;80.50;;;;;;5033268;28;20111;-77
2022/10/11 08:41:36;;;;;;;39.15;21.00;;;16.00;81.50;;;;;;5032467;28;20060;-77
2022/10/11 08:44:23;;;;;;;37.42;20.92;;;15.70;83.00;;;;;;5033162;28;20030;-77
2022/10/11 08:46:56;;;;;;;32.63;18.70;;;15.40;84.10;;;;;;5032921;28;20116;-76
2022/10/11 08:49:25;;;;;;;44.25;21.95;;;15.30;84.80;;;;;;5049623;28;20112;-77
2022/10/11 08:51:58;;;;;;;37.60;19.55;;;15.20;85.50;;;;;;5048897;28;20025;-77
2022/10/11 08:54:42;;;;;;;42.42;22.52;;;15.20;85.80;;;;;;5049453;28;20029;-77
2022/10/11 08:57:13;;;;;;;48.22;23.50;;;15.10;86.50;;;;;;5033176;28;20033;-77
2022/10/11 09:00:11;;;;;;;46.95;23.67;;;14.90;87.50;;;;;;5049358;28;20199;-77
2022/10/11 09:02:44;;;;;;;51.28;25.52;;;14.70;88.30;;;;;;5049466;28;20492;-76
2022/10/11 09:05:15;;;;;;;44.47;23.48;;;14.70;88.80;;;;;;5048929;28;20033;-77
2022/10/11 09:08:21;;;;;;;47.67;24.45;;;14.60;89.20;;;;;;5032820;28;20031;-76
2022/10/11 09:10:51;;;;;;;43.07;25.20;;;14.60;89.20;;;;;;5049316;28;20029;-77
2022/10/11 09:13:30;;;;;;;41.40;20.20;;;14.60;89.40;;;;;;5032412;28;20033;-77
2022/10/11 09:16:22;;;;;;;37.80;18.42;;;14.60;89.20;;;;;;5032559;28;20021;-77
2022/10/11 09:19:14;;;;;;;43.92;23.92;;;14.80;89.10;;;;;;5048860;28;20120;-76
2022/10/11 09:21:58;;;;;;;47.47;23.70;;;14.80;88.70;;;;;;5031624;28;20117;-77
2022/10/11 09:24:44;;;;;;;43.50;21.63;;;14.80;88.40;;;;;;5030356;28;20044;-76
2022/10/11 09:27:21;;;;;;;48.95;21.83;;;14.80;88.40;;;;;;5029529;28;20385;-77
2022/10/11 09:30:09;;;;;;;49.03;23.70;;;14.80;88.30;;;;;;5048206;28;20048;-77
2022/10/11 09:32:38;;;;;;;51.50;25.13;;;14.80;88.30;;;;;;5049015;28;20140;-76
2022/10/11 09:35:16;;;;;;;45.88;23.30;;;14.80;88.10;;;;;;5048801;28;20171;-76
2022/10/11 09:37:46;;;;;;;42.40;20.88;;;14.80;88.40;;;;;;5047882;28;20033;-75
2022/10/11 09:40:21;;;;;;;56.65;25.92;;;14.80;88.50;;;;;;5031785;28;20103;-75
2022/10/11 09:42:46;;;;;;;52.65;26.13;;;14.70;88.60;;;;;;5048350;28;20064;-75
2022/10/11 09:45:20;;;;;;;44.33;23.00;;;14.70;88.40;;;;;;5032894;28;20450;-75
2022/10/11 09:47:48;;;;;;;49.05;23.65;;;14.60;88.30;;;;;;5048365;28;20568;-77
2022/10/11 09:50:22;;;;;;;49.60;21.95;;;14.60;88.30;;;;;;5032788;28;20113;-78
2022/10/11 09:52:59;;;;;;;43.42;21.00;;;14.50;88.10;;;;;;5031993;28;20024;-78
2022/10/11 09:55:38;;;;;;;34.75;18.52;;;14.50;88.30;;;;;;5045008;28;20420;-80
2022/10/11 09:58:05;;;;;;;50.33;25.15;;;14.60;88.20;;;;;;5031854;28;20026;-80
2022/10/11 10:00:32;;;;;;;49.38;23.90;;;14.50;88.40;;;;;;5014980;28;20486;-79
2022/10/11 10:03:01;;;;;;;46.63;23.95;;;14.40;88.20;;;;;;5030945;28;20041;-79
2022/10/11 10:05:30;;;;;;;53.75;22.92;;;14.30;88.60;;;;;;5030636;28;20116;-79
2022/10/11 10:08:03;;;;;;;48.92;24.13;;;14.30;88.90;;;;;;5033683;28;20124;-79
2022/10/11 10:10:28;;;;;;;40.80;21.60;;;14.20;89.00;;;;;;5030533;28;20052;-79
2022/10/11 10:12:58;;;;;;;45.35;22.70;;;14.30;89.10;;;;;;5030377;28;20474;-80
2022/10/11 10:15:29;;;;;;;47.20;21.85;;;14.30;88.90;;;;;;5030271;28;20025;-80
2022/10/11 10:17:55;;;;;;;47.33;23.00;;;14.30;89.20;;;;;;5031204;28;20025;-79
2022/10/11 10:20:31;;;;;;;40.45;21.35;;;14.30;89.00;;;;;;5031083;28;20048;-79
2022/10/11 10:22:58;;;;;;;;;;;14.30;88.70;;;;;;5031475;28;20064;-79
2022/10/11 10:25:31;;;;;;;37.78;18.92;;;14.30;88.40;;;;;;5031390;28;19905;-79
2022/10/11 10:27:59;;;;;;;40.85;22.15;;;14.40;88.40;;;;;;5031766;28;20029;-80
2022/10/11 10:30:26;;;;;;;42.05;22.13;;;14.40;88.10;;;;;;5030897;28;20120;-79
2022/10/11 10:32:59;;;;;;;37.20;18.73;;;14.40;88.00;;;;;;5031047;28;20029;-79
2022/10/11 10:35:48;;;;;;;41.08;20.60;;;14.50;88.10;;;;;;5031119;28;20115;-80
2022/10/11 10:38:39;;;;;;;38.08;19.55;;;14.60;87.90;;;;;;5030735;28;20021;-80
2022/10/11 10:41:11;;;;;;;42.58;20.90;;;14.50;87.40;;;;;;5030766;28;20048;-80
2022/10/11 10:43:41;;;;;;;37.47;17.40;;;14.60;87.30;;;;;;5030539;28;20037;-79
2022/10/11 10:46:25;;;;;;;37.58;19.85;;;14.50;87.40;;;;;;5029670;28;20179;-82
2022/10/11 10:48:59;;;;;;;38.47;17.40;;;14.60;87.30;;;;;;5027496;28;20027;-79
2022/10/11 10:51:34;;;;;;;32.53;18.52;;;14.70;87.00;;;;;;5032499;28;20025;-79
2022/10/11 10:54:34;;;;;;;29.70;15.50;;;14.70;86.70;;;;;;5034210;28;20139;-78
2022/10/11 10:57:11;;;;;;;38.72;16.15;;;14.80;87.40;;;;;;5043359;28;20098;-76
2022/10/11 10:59:58;;;;;;;29.30;15.38;;;15.10;87.10;;;;;;5053340;28;20038;-77
2022/10/11 11:03:01;;;;;;;48.25;16.17;;;15.30;86.40;;;;;;5036208;28;20029;-74
2022/10/11 11:06:05;;;;;;;31.95;15.38;;;15.60;84.90;;;;;;5051976;28;20083;-82
2022/10/11 11:08:55;;;;;;;35.28;15.77;;;15.80;84.00;;;;;;5051122;28;20030;-78
2022/10/11 11:11:35;;;;;;;47.28;16.35;;;16.00;83.70;;;;;;5043141;28;20056;-80
2022/10/11 11:14:22;;;;;;;65.60;17.13;;;16.20;82.40;;;;;;5030922;28;20029;-76
2022/10/11 11:17:11;;;;;;;48.03;14.45;;;16.30;81.80;;;;;;5033142;28;20017;-78
2022/10/11 11:20:05;;;;;;;32.78;12.65;;;16.40;80.80;;;;;;5040807;28;20025;-78
2022/10/11 11:22:56;;;;;;;36.88;13.65;;;16.50;80.30;;;;;;5033558;28;20471;-77
2022/10/11 11:25:44;;;;;;;35.92;13.55;;;16.60;79.50;;;;;;5032764;28;20100;-76
2022/10/11 11:28:22;;;;;;;27.90;12.35;;;16.70;78.90;;;;;;5032007;28;20083;-78
2022/10/11 11:31:10;;;;;;;23.63;11.95;;;16.80;78.70;;;;;;5041402;28;20021;-77
2022/10/11 11:34:10;;;;;;;25.23;11.65;;;16.80;78.40;;;;;;5029840;28;20021;-77
2022/10/11 11:36:50;;;;;;;24.17;10.57;;;16.80;77.70;;;;;;5030525;28;20080;-80
2022/10/11 11:39:23;;;;;;;23.15;9.93;;;16.80;77.90;;;;;;5050525;28;20080;-80
2022/10/11 11:41:56;;;;;;;24.67;10.05;;;16.90;77.40;;;;;;5050400;28;20489;-81
2022/10/11 11:44:32;;;;;;;27.40;10.48;;;16.90;77.40;;;;;;5033363;28;20481;-81
2022/10/11 11:47:16;;;;;;;22.85;9.57;;;16.80;77.00;;;;;;5034203;28;20151;-81
2022/10/11 11:50:01;;;;;;;18.55;8.65;;;16.80;76.90;;;;;;5050059;28;20017;-80
2022/10/11 11:52:43;;;;;;;20.00;9.82;;;16.80;76.40;;;;;;5049953;28;20477;-82
2022/10/11 11:55:48;;;;;;;21.80;8.50;;;16.80;76.20;;;;;;5032792;28;20030;-79
2022/10/11 11:58:54;;;;;;;52.50;9.70;;;16.80;76.30;;;;;;5050156;28;20034;-78
2022/10/11 12:01:55;;;;;;;20.02;9.63;;;16.80;75.90;;;;;;5050071;28;20140;-81
2022/10/11 12:04:30;;;;;;;20.90;9.30;;;16.80;75.90;;;;;;5034070;28;20029;-75
2022/10/11 12:07:22;;;;;;;16.60;9.00;;;16.80;76.30;;;;;;5050423;28;20022;-74
2022/10/11 12:09:53;;;;;;;23.20;9.13;;;16.90;76.80;;;;;;5050463;28;20268;-77
2022/10/11 12:12:36;;;;;;;24.95;9.05;;;16.90;75.70;;;;;;5050332;28;20026;-75
2022/10/11 12:15:08;;;;;;;16.88;9.77;;;16.90;75.70;;;;;;5050543;28;20489;-77
2022/10/11 12:17:54;;;;;;;21.70;9.40;;;16.90;75.50;;;;;;5033959;28;20489;-75
2022/10/11 12:20:22;;;;;;;26.80;10.20;;;17.00;75.80;;;;;;5049893;28;20064;-77
2022/10/11 12:22:48;;;;;;;23.15;9.77;;;17.10;75.70;;;;;;5050281;28;20042;-77
2022/10/11 12:25:14;;;;;;;19.30;8.75;;;17.10;75.20;;;;;;5035350;28;20034;-74
2022/10/11 12:27:44;;;;;;;18.15;8.25;;;17.10;75.20;;;;;;5033432;28;20402;-78
2022/10/11 12:30:41;;;;;;;21.10;9.20;;;17.10;75.20;;;;;;5050004;28;20437;-81
2022/10/11 12:33:15;;;;;;;24.10;10.35;;;17.10;74.90;;;;;;5033659;28;20033;-80
2022/10/11 12:36:34;;;;;;;24.58;10.52;;;17.10;74.90;;;;;;5033727;28;20064;-79
2022/10/11 12:39:18;;;;;;;24.55;10.95;;;17.00;75.60;;;;;;5038511;28;20033;-81
2022/10/11 12:41:47;;;;;;;26.98;12.50;;;16.80;76.30;;;;;;5034400;28;20068;-80
2022/10/11 12:44:22;;;;;;;29.52;13.95;;;16.60;77.40;;;;;;5032705;28;20080;-81
2022/10/11 12:47:01;;;;;;;30.60;14.13;;;16.50;78.40;;;;;;5032986;28;20386;-81
2022/10/11 12:49:32;;;;;;;30.38;15.13;;;16.20;79.10;;;;;;5049779;28;20025;-81
2022/10/11 12:52:04;;;;;;;26.15;15.07;;;15.90;80.60;;;;;;5032719;28;20029;-79
2022/10/11 12:54:47;;;;;;;36.25;15.18;;;15.80;81.10;;;;;;5049438;28;20069;-81
2022/10/11 12:57:16;;;;;;;41.47;16.70;;;15.70;81.70;;;;;;5032918;28;20029;-77
2022/10/11 12:59:44;;;;;;;26.65;13.10;;;15.60;82.30;;;;;;5032833;28;20021;-77